Terminal Aerodrome Forecast
Issued by NWS

Home | Current Version | Previous Version | Text Only | Print | Product List | Glossary On
Versions: 1 2 3 4 5 6 7 8 9 10 11 12 13 14 15 16 17 18 19 20 21 22 23 24
000
FTUS43 KDVN 251239 AAA
TAFCID
TAF AMD
KCID 251239Z 2513/2612 08017G25KT 5SM -SHRA BR OVC020
      TEMPO 2513/2516 3SM -SHRA OVC015
     FM251600 07016G23KT 3SM -SHRA BR SCT007 OVC012
     FM251900 07015G23KT 5SM -RA BR OVC015
     FM252300 04014KT P6SM BKN035
     FM260600 04008KT P6SM SKC=

USA.gov is the U.S. government's official web portal to all federal, state and local government web resources and services.